createdAt,value
2019-05-16T00:00:11.189Z,1.00
2019-05-16T00:02:39.755Z,0.83
2019-05-16T00:05:09.028Z,0.80
2019-05-16T00:07:38.998Z,1.00
2019-05-16T00:10:08.504Z,1.10
2019-05-16T00:12:39.663Z,0.80
2019-05-16T00:15:09.132Z,0.83
2019-05-16T00:17:38.740Z,0.80
2019-05-16T00:20:09.335Z,1.00
2019-05-16T00:22:39.450Z,1.07
2019-05-16T00:25:08.763Z,1.03
2019-05-16T00:27:38.669Z,0.93
2019-05-16T00:30:09.254Z,1.20
2019-05-16T00:32:39.004Z,1.03
2019-05-16T00:35:09.237Z,1.00
2019-05-16T00:37:39.192Z,0.80
2019-05-16T00:40:08.871Z,1.30
2019-05-16T00:42:39.083Z,1.73
2019-05-16T00:45:09.281Z,0.77
2019-05-16T00:47:39.017Z,0.80
2019-05-16T00:50:09.328Z,0.87
2019-05-16T00:52:39.479Z,0.87
2019-05-16T00:55:08.493Z,0.80
2019-05-16T00:57:38.958Z,0.70
2019-05-16T01:00:09.360Z,1.13
2019-05-16T01:02:38.282Z,1.03
2019-05-16T01:05:08.622Z,0.90
2019-05-16T01:07:39.283Z,1.20
2019-05-16T01:10:09.160Z,1.03
2019-05-16T01:12:39.093Z,0.83
2019-05-16T01:15:09.091Z,1.13
2019-05-16T01:17:39.073Z,1.50
2019-05-16T01:20:08.732Z,0.60
2019-05-16T01:22:38.594Z,1.13
2019-05-16T01:25:09.430Z,1.13
2019-05-16T01:27:38.753Z,0.90
2019-05-16T01:30:09.176Z,1.00
2019-05-16T01:32:39.194Z,1.10
2019-05-16T01:35:08.418Z,1.43
2019-05-16T01:37:38.310Z,1.27
2019-05-16T01:40:08.361Z,1.37
2019-05-16T01:42:38.592Z,1.20
2019-05-16T01:45:08.900Z,1.20
2019-05-16T01:47:39.305Z,1.17
2019-05-16T01:50:08.818Z,1.40
2019-05-16T01:52:38.320Z,0.90
2019-05-16T01:55:08.337Z,1.27
2019-05-16T01:57:38.990Z,1.10
2019-05-16T02:00:08.518Z,1.13
2019-05-16T02:02:38.531Z,0.73
2019-05-16T02:05:08.452Z,1.00
2019-05-16T02:07:38.710Z,1.00
2019-05-16T02:10:08.710Z,0.90
2019-05-16T02:12:38.458Z,1.50
2019-05-16T02:15:08.223Z,1.30
2019-05-16T02:17:38.458Z,1.30
2019-05-16T02:20:08.686Z,1.00
2019-05-16T02:22:38.886Z,0.80
2019-05-16T02:25:10.177Z,1.07
2019-05-16T02:27:40.991Z,1.20
2019-05-16T02:30:12.594Z,1.23
2019-05-16T02:32:41.691Z,1.47
2019-05-16T02:35:12.047Z,1.50
2019-05-16T02:37:42.420Z,1.00
2019-05-16T02:40:12.380Z,1.27
2019-05-16T02:42:42.491Z,1.40
2019-05-16T02:45:11.786Z,1.47
2019-05-16T02:47:42.512Z,1.40
2019-05-16T02:50:12.358Z,0.90
2019-05-16T02:52:41.669Z,1.53
2019-05-16T02:55:12.228Z,1.30
2019-05-16T02:57:41.853Z,1.33
2019-05-16T03:00:12.389Z,1.27
2019-05-16T03:02:42.094Z,0.83
2019-05-16T03:05:12.493Z,1.43
2019-05-16T03:07:47.059Z,1.33
2019-05-16T03:10:14.581Z,1.40
2019-05-16T03:12:43.914Z,1.50
2019-05-16T03:15:12.895Z,1.10
2019-05-16T03:17:44.303Z,1.60
2019-05-16T03:20:14.066Z,1.40
2019-05-16T03:22:42.986Z,1.30
2019-05-16T03:25:12.132Z,1.83
2019-05-16T03:27:41.501Z,1.20
2019-05-16T03:30:15.850Z,1.40
2019-05-16T03:32:44.760Z,1.70
2019-05-16T03:35:15.872Z,1.43
2019-05-16T03:37:55.153Z,1.30
2019-05-16T03:40:17.336Z,1.17
2019-05-16T03:42:45.824Z,1.10
2019-05-16T03:45:14.489Z,1.73
2019-05-16T03:47:43.217Z,1.20
2019-05-16T03:50:12.052Z,1.30
2019-05-16T03:52:43.564Z,1.17
2019-05-16T03:55:11.461Z,1.43
2019-05-16T03:57:41.556Z,1.47
2019-05-16T04:00:12.099Z,1.67
2019-05-16T04:02:41.996Z,1.30
2019-05-16T04:05:11.810Z,1.20
2019-05-16T04:07:41.654Z,1.40
2019-05-16T04:10:11.134Z,1.43
2019-05-16T04:12:42.096Z,1.83
2019-05-16T04:15:11.471Z,1.23
2019-05-16T04:17:41.212Z,1.20
2019-05-16T04:20:11.552Z,1.17
2019-05-16T04:22:41.027Z,1.63
2019-05-16T04:25:11.249Z,1.80
2019-05-16T04:27:41.737Z,1.53
2019-05-16T04:30:12.205Z,1.80
2019-05-16T04:32:41.953Z,1.30
2019-05-16T04:35:11.572Z,2.17
2019-05-16T04:37:42.094Z,1.67
2019-05-16T04:40:12.002Z,1.73
2019-05-16T04:42:41.843Z,1.00
2019-05-16T04:45:12.055Z,1.73
2019-05-16T04:47:41.544Z,1.50
2019-05-16T04:50:12.267Z,1.43
2019-05-16T04:52:41.927Z,1.77
2019-05-16T04:55:12.050Z,1.47
2019-05-16T04:57:42.226Z,1.33
2019-05-16T05:00:11.856Z,1.67
2019-05-16T05:02:41.833Z,1.77
2019-05-16T05:05:12.656Z,1.17
2019-05-16T05:07:41.436Z,1.33
2019-05-16T05:10:11.237Z,1.93
2019-05-16T05:12:40.877Z,1.93
2019-05-16T05:15:11.942Z,1.93
2019-05-16T05:17:41.174Z,2.10
2019-05-16T05:20:11.104Z,1.63
2019-05-16T05:22:40.032Z,1.50
2019-05-16T05:25:10.849Z,1.30
2019-05-16T05:27:41.248Z,1.60
2019-05-16T05:30:10.853Z,1.10
2019-05-16T05:32:41.403Z,1.03
2019-05-16T05:35:10.814Z,1.20
2019-05-16T05:37:41.053Z,1.10
2019-05-16T05:40:10.597Z,1.00
2019-05-16T05:42:40.105Z,1.27
2019-05-16T05:45:11.210Z,0.90
2019-05-16T05:47:40.169Z,0.90
2019-05-16T05:50:11.162Z,0.87
2019-05-16T05:52:41.154Z,1.10
2019-05-16T05:55:10.648Z,1.00
2019-05-16T05:57:40.389Z,1.10
2019-05-16T06:00:11.443Z,0.97
2019-05-16T06:02:40.466Z,0.90
2019-05-16T06:05:10.581Z,1.20
2019-05-16T06:07:40.533Z,0.90
2019-05-16T06:10:10.581Z,1.23
2019-05-16T06:12:41.098Z,0.87
2019-05-16T06:15:12.936Z,0.90
2019-05-16T06:17:40.492Z,1.10
2019-05-16T06:20:14.462Z,0.93
2019-05-16T06:22:41.618Z,0.83
2019-05-16T06:25:13.235Z,0.90
2019-05-16T06:27:40.903Z,0.70
2019-05-16T06:30:11.379Z,0.73
2019-05-16T06:32:40.071Z,0.70
2019-05-16T06:35:09.740Z,0.73
2019-05-16T06:37:40.665Z,0.70
2019-05-16T06:40:10.904Z,0.70
2019-05-16T06:42:40.256Z,0.83
2019-05-16T06:45:10.397Z,0.90
2019-05-16T06:47:39.683Z,0.80
2019-05-16T06:50:11.052Z,0.60
2019-05-16T06:52:40.892Z,0.70
2019-05-16T06:55:10.311Z,0.60
2019-05-16T06:57:40.855Z,0.70
2019-05-16T07:00:11.045Z,0.70
2019-05-16T07:02:40.922Z,0.70
2019-05-16T07:05:10.430Z,0.80
2019-05-16T07:07:40.430Z,0.60
2019-05-16T07:10:09.912Z,0.77
2019-05-16T07:12:41.113Z,0.70
2019-05-16T07:15:12.181Z,0.43
2019-05-16T07:17:39.966Z,0.73
2019-05-16T07:20:10.617Z,0.60
2019-05-16T07:22:40.661Z,0.60
2019-05-16T07:25:10.658Z,0.60
2019-05-16T07:27:40.146Z,0.80
2019-05-16T07:30:10.799Z,0.73
2019-05-16T07:32:40.499Z,0.50
2019-05-16T07:35:10.604Z,0.80
2019-05-16T07:37:39.963Z,0.60
2019-05-16T07:40:19.081Z,0.50
2019-05-16T07:42:40.418Z,0.83
2019-05-16T07:45:10.815Z,0.57
2019-05-16T07:47:40.184Z,1.17
2019-05-16T07:50:10.361Z,1.43
2019-05-16T07:52:40.173Z,0.60
2019-05-16T07:55:10.837Z,0.50
2019-05-16T07:57:40.062Z,0.70
2019-05-16T08:00:09.849Z,0.60
2019-05-16T08:02:40.286Z,0.80
2019-05-16T08:05:10.236Z,0.50
2019-05-16T08:07:40.680Z,0.90
2019-05-16T08:10:10.922Z,0.73
2019-05-16T08:12:40.719Z,0.80
2019-05-16T08:15:10.403Z,0.53
2019-05-16T08:17:41.532Z,0.70
2019-05-16T08:20:10.851Z,0.60
2019-05-16T08:22:41.625Z,1.03
2019-05-16T08:25:10.783Z,0.77
2019-05-16T08:27:41.451Z,0.70
2019-05-16T08:30:11.211Z,0.70
2019-05-16T08:32:42.129Z,1.90
2019-05-16T08:35:11.178Z,0.83
2019-05-16T08:40:11.594Z,0.70
2019-05-16T08:42:41.627Z,0.47
2019-05-16T08:45:12.433Z,0.60
2019-05-16T08:47:42.539Z,1.00
2019-05-16T08:50:08.651Z,0.70
2019-05-16T08:50:14.375Z,0.80
2019-05-16T08:52:43.527Z,0.77
2019-05-16T08:55:13.722Z,0.80
2019-05-16T08:57:42.264Z,0.83
2019-05-16T09:00:14.607Z,0.70
2019-05-16T09:02:42.408Z,0.70
2019-05-16T09:05:13.683Z,0.80
2019-05-16T09:07:41.532Z,0.90
2019-05-16T09:10:48.133Z,0.70
2019-05-16T09:12:41.983Z,0.80
2019-05-16T09:15:10.765Z,0.60
2019-05-16T09:17:39.327Z,0.73
2019-05-16T09:20:09.225Z,0.63
2019-05-16T09:22:38.051Z,0.83
2019-05-16T09:25:13.851Z,0.50
2019-05-16T09:27:38.302Z,0.90
2019-05-16T09:30:08.865Z,0.70
2019-05-16T09:32:37.318Z,1.30
2019-05-16T09:35:09.859Z,0.80
2019-05-16T09:37:38.466Z,0.50
2019-05-16T09:40:08.258Z,0.67
2019-05-16T09:42:37.386Z,0.60
2019-05-16T09:45:07.445Z,0.70
2019-05-16T09:47:38.961Z,0.70
2019-05-16T09:50:08.736Z,1.33
2019-05-16T09:52:37.345Z,0.90
2019-05-16T09:55:07.508Z,0.70
2019-05-16T09:57:37.725Z,0.83
2019-05-16T10:00:09.656Z,0.80
2019-05-16T10:02:38.125Z,1.00
2019-05-16T10:05:13.471Z,1.00
2019-05-16T10:07:38.763Z,0.80
2019-05-16T10:10:09.593Z,1.00
2019-05-16T10:12:38.044Z,0.97
2019-05-16T10:15:07.757Z,1.03
2019-05-16T10:17:37.045Z,0.70
2019-05-16T10:20:08.170Z,1.00
2019-05-16T10:22:37.361Z,1.00
2019-05-16T10:25:06.868Z,1.20
2019-05-16T10:27:36.855Z,0.80
2019-05-16T10:30:10.213Z,0.80
2019-05-16T10:32:39.849Z,1.27
2019-05-16T10:35:08.839Z,0.80
2019-05-16T10:37:37.704Z,1.20
2019-05-16T10:40:07.555Z,1.47
2019-05-16T10:42:37.976Z,0.80
2019-05-16T10:45:08.856Z,1.03
2019-05-16T10:47:37.753Z,0.87
2019-05-16T10:50:08.107Z,0.60
2019-05-16T10:52:36.954Z,0.93
2019-05-16T10:55:08.138Z,0.73
2019-05-16T10:57:37.781Z,0.70
2019-05-16T11:00:18.021Z,0.80
2019-05-16T11:02:38.332Z,0.90
2019-05-16T11:05:22.638Z,0.83
2019-05-16T11:07:37.421Z,0.90
2019-05-16T11:10:09.511Z,0.90
2019-05-16T11:12:50.080Z,1.00
2019-05-16T11:15:11.381Z,1.30
2019-05-16T11:17:40.786Z,0.87
2019-05-16T11:20:09.791Z,1.43
2019-05-16T11:22:38.212Z,1.20
2019-05-16T11:25:21.110Z,1.30
2019-05-16T11:27:37.808Z,1.13
2019-05-16T11:30:08.010Z,1.50
2019-05-16T11:32:37.462Z,0.97
2019-05-16T11:35:09.806Z,1.10
2019-05-16T11:37:38.309Z,1.70
2019-05-16T11:40:07.773Z,2.00
2019-05-16T11:42:37.875Z,1.27
2019-05-16T11:45:09.809Z,1.10
2019-05-16T11:47:38.875Z,1.50
2019-05-16T11:50:09.965Z,1.50
2019-05-16T11:52:40.741Z,1.07
2019-05-16T11:55:08.951Z,1.33
2019-05-16T11:57:38.063Z,1.60
2019-05-16T12:00:12.047Z,1.60
2019-05-16T12:02:42.894Z,1.67
2019-05-16T12:05:11.005Z,1.93
2019-05-16T12:07:44.429Z,1.13
2019-05-16T12:10:10.244Z,1.70
2019-05-16T12:12:38.704Z,1.10
2019-05-16T12:15:08.306Z,1.10
2019-05-16T12:17:36.790Z,1.00
2019-05-16T12:20:07.831Z,1.63
2019-05-16T12:22:37.657Z,1.40
2019-05-16T12:25:08.201Z,1.50
2019-05-16T12:27:42.198Z,1.00
2019-05-16T12:30:13.764Z,1.27
2019-05-16T12:32:39.467Z,1.43
2019-05-16T12:35:08.163Z,1.30
2019-05-16T12:37:37.419Z,1.00
2019-05-16T12:40:09.338Z,1.10
2019-05-16T12:42:37.865Z,1.37
2019-05-16T12:45:07.919Z,0.90
2019-05-16T12:47:37.568Z,1.20
2019-05-16T12:50:09.093Z,1.03
2019-05-16T12:52:38.405Z,0.77
2019-05-16T12:55:08.045Z,1.20
2019-05-16T12:57:38.372Z,0.93
2019-05-16T13:00:15.237Z,1.40
2019-05-16T13:02:40.010Z,1.40
2019-05-16T13:05:09.126Z,1.30
2019-05-16T13:07:37.830Z,0.90
2019-05-16T13:10:07.562Z,1.07
2019-05-16T13:12:37.696Z,1.20
2019-05-16T13:15:07.313Z,1.13
2019-05-16T13:17:37.176Z,1.00
2019-05-16T13:20:08.068Z,0.90
2019-05-16T13:22:38.340Z,1.20
2019-05-16T13:25:07.869Z,0.80
2019-05-16T13:27:37.907Z,1.40
2019-05-16T13:30:11.187Z,1.37
2019-05-16T13:32:39.852Z,1.50
2019-05-16T13:35:08.536Z,1.13
2019-05-16T13:37:37.049Z,1.10
2019-05-16T13:40:08.168Z,1.57
2019-05-16T13:42:37.252Z,1.50
2019-05-16T13:45:09.124Z,1.50
2019-05-16T13:47:37.953Z,1.47
2019-05-16T13:50:12.056Z,1.40
2019-05-16T13:52:38.294Z,1.37
2019-05-16T13:55:07.968Z,1.20
2019-05-16T13:57:37.345Z,1.50
2019-05-16T14:00:10.331Z,0.93
2019-05-16T14:02:39.193Z,1.33
2019-05-16T14:05:08.887Z,1.63
2019-05-16T14:07:37.924Z,1.00
2019-05-16T14:10:07.727Z,0.90
2019-05-16T14:12:36.832Z,1.20
2019-05-16T14:15:08.567Z,1.70
2019-05-16T14:17:37.413Z,1.20
2019-05-16T14:20:14.605Z,1.43
2019-05-16T14:22:37.566Z,1.00
2019-05-16T14:25:07.847Z,1.23
2019-05-16T14:27:38.119Z,1.33
2019-05-16T14:30:10.919Z,1.43
2019-05-16T14:32:43.011Z,1.27
2019-05-16T14:35:09.809Z,1.87
2019-05-16T14:37:38.435Z,1.33
2019-05-16T14:40:08.878Z,1.20
2019-05-16T14:42:38.683Z,0.97
2019-05-16T14:45:12.734Z,1.00
2019-05-16T14:47:40.259Z,1.33
2019-05-16T14:50:13.116Z,1.13
2019-05-16T14:52:39.238Z,1.20
2019-05-16T14:55:08.233Z,1.73
2019-05-16T14:57:37.075Z,1.20
2019-05-16T15:00:11.360Z,1.10
2019-05-16T15:02:39.871Z,1.60
2019-05-16T15:05:08.862Z,1.70
2019-05-16T15:07:37.765Z,2.03
2019-05-16T15:10:08.061Z,1.63
2019-05-16T15:12:37.692Z,1.77
2019-05-16T15:15:20.174Z,1.60
2019-05-16T15:17:38.583Z,1.53
2019-05-16T15:20:08.966Z,1.80
2019-05-16T15:22:38.311Z,1.63
2019-05-16T15:25:08.319Z,1.67
2019-05-16T15:27:37.416Z,2.00
2019-05-16T15:30:10.016Z,1.80
2019-05-16T15:32:38.850Z,1.30
2019-05-16T15:35:08.429Z,1.33
2019-05-16T15:37:37.506Z,1.67
2019-05-16T15:40:08.298Z,1.07
2019-05-16T15:42:37.403Z,2.10
2019-05-16T15:45:07.290Z,1.77
2019-05-16T15:47:37.571Z,1.57
2019-05-16T15:50:11.211Z,1.77
2019-05-16T15:52:39.795Z,1.30
2019-05-16T15:55:10.449Z,1.70
2019-05-16T15:57:39.027Z,1.77
2019-05-16T16:00:10.882Z,1.90
2019-05-16T16:02:39.444Z,2.10
2019-05-16T16:05:09.682Z,1.80
2019-05-16T16:07:38.382Z,1.60
2019-05-16T16:10:07.796Z,2.13
2019-05-16T16:12:37.592Z,2.00
2019-05-16T16:15:07.713Z,1.57
2019-05-16T16:17:37.984Z,2.37
2019-05-16T16:20:10.430Z,3.00
2019-05-16T16:22:37.979Z,2.17
2019-05-16T16:25:08.263Z,2.27
2019-05-16T16:27:36.719Z,2.70
2019-05-16T16:30:08.528Z,2.93
2019-05-16T16:32:38.015Z,3.13
2019-05-16T16:35:08.082Z,3.00
2019-05-16T16:37:37.822Z,2.30
2019-05-16T16:40:11.360Z,2.97
2019-05-16T16:42:37.822Z,2.47
2019-05-16T16:45:09.727Z,3.27
2019-05-16T16:47:38.232Z,2.20
2019-05-16T16:50:08.243Z,3.00
2019-05-16T16:52:37.927Z,2.47
2019-05-16T16:55:07.832Z,2.43
2019-05-16T16:57:38.306Z,2.63
2019-05-16T17:00:12.430Z,2.23
2019-05-16T17:02:40.948Z,2.00
2019-05-16T17:05:12.840Z,1.97
2019-05-16T17:07:40.602Z,2.37
2019-05-16T17:10:09.741Z,2.40
2019-05-16T17:12:42.520Z,2.27
2019-05-16T17:15:09.548Z,2.40
2019-05-16T17:17:38.132Z,2.20
2019-05-16T17:20:08.495Z,1.87
2019-05-16T17:22:37.975Z,2.33
2019-05-16T17:25:08.691Z,1.90
2019-05-16T17:27:37.759Z,1.70
2019-05-16T17:30:20.426Z,2.60
2019-05-16T17:32:48.943Z,1.67
2019-05-16T17:35:19.016Z,1.60
2019-05-16T17:37:49.050Z,2.57
2019-05-16T17:40:18.419Z,2.43
2019-05-16T17:42:48.198Z,2.50
2019-05-16T17:45:18.040Z,1.57
2019-05-16T17:47:46.961Z,2.20
2019-05-16T17:50:17.275Z,2.10
2019-05-16T17:52:47.706Z,1.67
2019-05-16T17:55:17.608Z,1.57
2019-05-16T17:57:46.618Z,1.40
2019-05-16T18:00:24.422Z,1.93
2019-05-16T18:02:46.797Z,1.40
2019-05-16T18:05:17.049Z,1.50
2019-05-16T18:07:47.449Z,2.33
2019-05-16T18:10:18.096Z,1.37
2019-05-16T18:12:47.943Z,1.17
2019-05-16T18:15:21.513Z,1.40
2019-05-16T18:17:50.095Z,1.30
2019-05-16T18:20:22.305Z,0.93
2019-05-16T18:22:50.140Z,0.93
2019-05-16T18:25:19.417Z,1.70
2019-05-16T18:27:48.088Z,1.17
2019-05-16T18:30:18.349Z,1.50
2019-05-16T18:32:46.852Z,1.40
2019-05-16T18:35:16.715Z,1.57
2019-05-16T18:37:46.499Z,1.10
2019-05-16T18:40:18.798Z,1.60
2019-05-16T18:42:47.785Z,1.20
2019-05-16T18:45:16.749Z,1.53
2019-05-16T18:47:47.050Z,1.70
2019-05-16T18:50:18.030Z,1.70
2019-05-16T18:52:47.191Z,1.60
2019-05-16T18:55:16.972Z,2.03
2019-05-16T18:57:47.202Z,1.77
2019-05-16T19:00:17.854Z,1.47
2019-05-16T19:02:47.825Z,1.17
2019-05-16T19:05:17.489Z,1.47
2019-05-16T19:07:47.527Z,2.00
2019-05-16T19:10:17.605Z,2.07
2019-05-16T19:12:47.817Z,1.70
2019-05-16T19:15:17.834Z,1.90
2019-05-16T19:17:46.826Z,1.23
2019-05-16T19:20:17.381Z,1.40
2019-05-16T19:22:46.067Z,1.17
2019-05-16T19:25:15.550Z,2.00
2019-05-16T19:27:46.433Z,1.67
2019-05-16T19:30:18.256Z,1.70
2019-05-16T19:32:47.030Z,1.60
2019-05-16T19:35:16.528Z,1.43
2019-05-16T19:37:47.070Z,1.80
2019-05-16T19:40:17.160Z,1.37
2019-05-16T19:42:47.244Z,1.00
2019-05-16T19:45:17.380Z,1.23
2019-05-16T19:47:46.984Z,1.50
2019-05-16T19:50:17.782Z,1.37
2019-05-16T19:52:47.203Z,1.30
2019-05-16T19:55:17.822Z,1.60
2019-05-16T19:57:46.738Z,1.47
2019-05-16T20:00:17.219Z,1.40
2019-05-16T20:02:47.317Z,1.17
2019-05-16T20:05:17.019Z,1.57
2019-05-16T20:07:45.780Z,1.37
2019-05-16T20:10:16.851Z,1.20
2019-05-16T20:12:46.326Z,1.00
2019-05-16T20:15:16.558Z,1.00
2019-05-16T20:17:53.944Z,1.10
2019-05-16T20:20:18.521Z,1.37
2019-05-16T20:22:46.499Z,1.60
2019-05-16T20:25:16.375Z,1.00
2019-05-16T20:27:46.957Z,1.60
2019-05-16T20:30:17.075Z,1.40
2019-05-16T20:32:45.723Z,1.23
2019-05-16T20:35:14.384Z,1.67
2019-05-16T20:37:42.907Z,1.47
2019-05-16T20:40:12.657Z,1.77
2019-05-16T20:42:41.244Z,1.30
2019-05-16T20:45:10.299Z,1.50
2019-05-16T20:47:38.720Z,1.73
2019-05-16T20:50:09.254Z,1.40
2019-05-16T20:52:38.226Z,1.57
2019-05-16T20:55:08.479Z,1.50
2019-05-16T20:57:37.556Z,1.70
2019-05-16T21:00:08.781Z,1.87
2019-05-16T21:02:38.066Z,1.80
2019-05-16T21:05:07.244Z,1.40
2019-05-16T21:07:37.498Z,1.10
2019-05-16T21:10:09.677Z,1.43
2019-05-16T21:12:40.327Z,1.17
2019-05-16T21:15:10.018Z,1.70
2019-05-16T21:17:38.511Z,1.70
2019-05-16T21:20:07.679Z,1.33
2019-05-16T21:22:37.189Z,2.00
2019-05-16T21:25:06.748Z,1.50
2019-05-16T21:27:37.553Z,1.67
2019-05-16T21:30:09.148Z,2.00
2019-05-16T21:32:37.649Z,1.70
2019-05-16T21:35:09.487Z,2.20
2019-05-16T21:37:38.031Z,2.50
2019-05-16T21:40:10.051Z,2.60
2019-05-16T21:42:38.623Z,2.63
2019-05-16T21:45:10.465Z,3.33
2019-05-16T21:47:38.905Z,2.70
2019-05-16T21:50:08.672Z,3.40
2019-05-16T21:52:37.429Z,3.13
2019-05-16T21:55:07.860Z,2.40
2019-05-16T21:57:37.688Z,3.33
2019-05-16T22:00:11.132Z,3.10
2019-05-16T22:02:39.922Z,4.00
2019-05-16T22:05:08.663Z,4.00
2019-05-16T22:07:37.154Z,3.40
2019-05-16T22:10:08.163Z,3.43
2019-05-16T22:12:38.443Z,3.93
2019-05-16T22:15:07.237Z,3.90
2019-05-16T22:17:36.665Z,3.70
2019-05-16T22:20:07.236Z,4.00
2019-05-16T22:22:38.252Z,3.93
2019-05-16T22:25:07.705Z,4.03
2019-05-16T22:27:36.456Z,3.97
2019-05-16T22:30:08.120Z,5.17
2019-05-16T22:32:36.628Z,5.00
2019-05-16T22:35:09.502Z,6.40
2019-05-16T22:37:49.319Z,6.70
2019-05-16T22:40:08.595Z,6.67
2019-05-16T22:42:37.575Z,7.73
2019-05-16T22:45:09.795Z,7.33
2019-05-16T22:47:38.406Z,6.70
2019-05-16T22:50:10.397Z,8.20
2019-05-16T22:52:38.942Z,7.80
2019-05-16T22:55:08.798Z,8.83
2019-05-16T22:57:37.219Z,7.33
2019-05-16T23:00:11.716Z,9.20
2019-05-16T23:02:40.158Z,8.10
2019-05-16T23:05:09.074Z,8.00
2019-05-16T23:07:37.711Z,8.03
2019-05-16T23:10:07.231Z,9.03
2019-05-16T23:12:37.182Z,9.20
2019-05-16T23:15:06.924Z,8.50
2019-05-16T23:17:37.507Z,7.60
2019-05-16T23:20:07.348Z,7.27
2019-05-16T23:22:36.750Z,8.90
2019-05-16T23:25:06.786Z,8.57
2019-05-16T23:27:36.765Z,8.40
2019-05-16T23:30:08.547Z,8.83
2019-05-16T23:32:37.047Z,9.13
2019-05-16T23:35:07.459Z,7.57
2019-05-16T23:37:37.058Z,8.83
2019-05-16T23:40:06.545Z,8.47
2019-05-16T23:42:37.104Z,8.50
2019-05-16T23:45:08.604Z,8.70
2019-05-16T23:47:37.629Z,9.50
2019-05-16T23:50:07.504Z,9.33
2019-05-16T23:52:36.860Z,9.93
2019-05-16T23:55:08.273Z,9.80
2019-05-16T23:57:37.598Z,9.30
